Time;durP1;ratioP1;P1;durP2;ratioP2;P2;SDS_P1;SDS_P2;PMS_P1;PMS_P2;Temp;Humidity;BMP_temperature;BMP_pressure;BME280_temperature;BME280_humidity;BME280_pressure;Samples;Min_cycle;Max_cycle;Signal;HPM_P1;HPM_P2
2023/06/14 00:00:07;;;;;;;;;;;;;;;26.02;34.41;101341.63;5051915;28;19920;-58
2023/06/14 00:02:34;;;;;;;;;;;;;;;26.06;33.99;101350.91;5052760;28;19919;-58
2023/06/14 00:05:00;;;;;;;;;;;;;;;26.02;34.13;101352.59;5056967;28;19948;-59
2023/06/14 00:07:43;;;;;;;;;;;;;;;25.90;34.24;101356.53;5058477;28;19916;-57
2023/06/14 00:10:10;;;;;;;;;;;;;;;25.91;34.27;101349.13;5050980;28;19913;-58
2023/06/14 00:12:36;;;;;;;;;;;;;;;25.84;34.32;101345.91;5057360;28;19952;-54
2023/06/14 00:15:02;;;;;;;;;;;;;;;25.79;34.26;101354.97;5056964;28;19916;-56
2023/06/14 00:17:30;;;;;;;;;;;;;;;25.82;34.29;101348.13;5056610;28;19984;-57
2023/06/14 00:19:57;;;;;;;;;;;;;;;25.77;34.30;101357.19;5058267;28;19919;-57
2023/06/14 00:22:25;;;;;;;;;;;;;;;25.79;34.16;101354.97;5058676;28;19937;-58
2023/06/14 00:24:51;;;;;;;;;;;;;;;25.75;34.18;101348.44;5055416;28;19923;-59
2023/06/14 00:27:17;;;;;;;;;;;;;;;25.62;34.62;101353.47;5055993;28;19939;-57
2023/06/14 00:29:43;;;;;;;;;;;;;;;25.68;34.35;101351.50;5057413;28;19924;-54
2023/06/14 00:32:09;;;;;;;;;;;;;;;25.50;34.49;101352.22;5059698;28;19913;-52
2023/06/14 00:34:34;;;;;;;;;;;;;;;25.57;34.51;101355.44;5053421;28;19913;-55
2023/06/14 00:37:00;;;;;;;;;;;;;;;25.57;34.47;101356.22;5036980;28;19925;-57
2023/06/14 00:39:25;;;;;;;;;;;;;;;25.54;34.52;101354.06;5041183;28;19913;-53
2023/06/14 00:41:51;;;;;;;;;;;;;;;25.45;34.66;101351.09;5057675;28;19952;-56
2023/06/14 00:44:17;;;;;;;;;;;;;;;25.51;34.43;101351.09;5041515;28;19913;-56
2023/06/14 00:46:42;;;;;;;;;;;;;;;25.45;34.44;101350.28;5054113;28;20063;-57
2023/06/14 00:49:08;;;;;;;;;;;;;;;25.31;34.68;101350.91;5024436;28;19940;-55
2023/06/14 00:51:34;;;;;;;;;;;;;;;25.35;34.59;101359.38;5055757;28;19968;-57
2023/06/14 00:54:00;;;;;;;;;;;;;;;25.32;35.03;101354.47;5038728;28;19913;-57
2023/06/14 00:56:27;;;;;;;;;;;;;;;25.25;35.29;101354.78;5039143;28;19927;-55
2023/06/14 00:58:53;;;;;;;;;;;;;;;25.26;35.16;101345.47;5056402;28;19913;-56
2023/06/14 01:01:19;;;;;;;;;;;;;;;25.20;35.31;101346.59;5053829;28;19952;-56
2023/06/14 01:03:45;;;;;;;;;;;;;;;25.19;35.39;101347.72;5056141;28;19913;-58
2023/06/14 01:06:30;;;;;;;;;;;;;;;25.12;35.45;101350.75;5055891;28;19936;-54
2023/06/14 01:09:15;;;;;;;;;;;;;;;25.01;35.75;101349.16;5057940;28;19916;-57
2023/06/14 01:11:47;;;;;;;;;;;;;;;25.01;36.24;101349.16;5053129;28;19923;-54
2023/06/14 01:14:14;;;;;;;;;;;;;;;24.86;36.45;101350.03;5036655;28;20003;-58
2023/06/14 01:16:40;;;;;;;;;;;;;;;24.98;37.13;101339.59;5019138;28;19912;-58
2023/06/14 01:19:12;;;;;;;;;;;;;;;24.89;36.55;101357.69;5041675;28;19944;-56
2023/06/14 01:21:41;;;;;;;;;;;;;;;24.88;36.41;101353.31;5064567;28;19962;-56
2023/06/14 01:24:08;;;;;;;;;;;;;;;24.77;36.86;101350.63;5061721;28;19923;-54
2023/06/14 01:26:35;;;;;;;;;;;;;;;24.78;36.51;101351.44;5064330;28;19962;-54
2023/06/14 01:29:01;;;;;;;;;;;;;;;24.78;37.01;101351.44;5041584;28;19912;-57
2023/06/14 01:31:27;;;;;;;;;;;;;;;24.69;37.17;101348.47;5046769;28;19956;-54
2023/06/14 01:33:53;;;;;;;;;;;;;;;24.72;36.84;101353.38;5043885;28;19913;-55
2023/06/14 01:36:19;;;;;;;;;;;;;;;24.63;37.34;101352.28;5044049;28;19980;-57
2023/06/14 01:38:46;;;;;;;;;;;;;;;24.57;37.61;101353.41;5058653;28;19913;-54
2023/06/14 01:41:11;;;;;;;;;;;;;;;24.54;37.98;101356.69;5062399;28;19913;-51
2023/06/14 01:43:38;;;;;;;;;;;;;;;24.52;37.93;101356.16;5064888;28;19940;-56
2023/06/14 01:46:05;;;;;;;;;;;;;;;24.43;37.90;101351.25;5040011;28;19917;-52
2023/06/14 01:48:31;;;;;;;;;;;;;;;24.49;38.01;101354.78;5060710;28;20008;-60
2023/06/14 01:50:56;;;;;;;;;;;;;;;24.40;38.29;101354.53;5059907;28;19925;-59
2023/06/14 01:53:22;;;;;;;;;;;;;;;24.34;38.56;101347.44;5058701;28;19913;-56
2023/06/14 01:55:48;;;;;;;;;;;;;;;24.20;38.92;101352.66;5038765;28;19920;-59
2023/06/14 01:58:15;;;;;;;;;;;;;;;24.18;38.93;101355.66;5043370;28;19982;-57
2023/06/14 02:00:43;;;;;;;;;;;;;;;24.10;39.10;101345.28;5043484;28;19943;-56
2023/06/14 02:03:08;;;;;;;;;;;;;;;24.60;38.54;101345.47;5063662;28;19921;-56
2023/06/14 02:05:34;;;;;;;;;;;;;;;24.66;38.39;101345.44;5041040;28;19927;-58
2023/06/14 02:08:00;;;;;;;;;;;;;;;24.61;38.68;101344.38;5041211;28;19917;-56
2023/06/14 02:10:25;;;;;;;;;;;;;;;24.61;38.49;101349.00;5055968;28;19920;-58
2023/06/14 02:12:50;;;;;;;;;;;;;;;24.62;38.41;101347.91;5041133;28;19916;-58
2023/06/14 02:15:19;;;;;;;;;;;;;;;24.44;38.90;101350.16;5043288;28;19913;-56
2023/06/14 02:17:49;;;;;;;;;;;;;;;23.95;39.53;101340.63;5042537;28;19913;-55
2023/06/14 02:20:16;;;;;;;;;;;;;;;23.92;39.46;101343.91;5059317;28;19912;-57
2023/06/14 02:22:42;;;;;;;;;;;;;;;23.84;39.82;101345.28;5058835;28;19984;-58
2023/06/14 02:25:08;;;;;;;;;;;;;;;23.87;39.99;101342.00;5040648;28;19912;-57
2023/06/14 02:27:33;;;;;;;;;;;;;;;23.82;39.94;101352.94;5058218;28;19924;-58
2023/06/14 02:29:59;;;;;;;;;;;;;;;23.84;40.25;101352.66;5057839;28;19921;-58
2023/06/14 02:32:26;;;;;;;;;;;;;;;23.77;40.51;101353.75;5053213;28;19920;-55
2023/06/14 02:34:53;;;;;;;;;;;;;;;23.73;40.66;101354.56;5057820;28;19916;-58
2023/06/14 02:37:18;;;;;;;;;;;;;;;23.63;40.54;101356.19;5040458;28;19913;-57
2023/06/14 02:39:45;;;;;;;;;;;;;;;23.58;41.27;101356.19;5042718;28;19947;-58
2023/06/14 02:42:11;;;;;;;;;;;;;;;23.61;41.12;101352.09;5060369;28;19909;-57
2023/06/14 02:44:36;;;;;;;;;;;;;;;23.58;41.39;101355.34;5040344;28;19913;-59
2023/06/14 02:47:02;;;;;;;;;;;;;;;23.57;41.48;101354.56;5060045;28;19976;-58
2023/06/14 02:49:27;;;;;;;;;;;;;;;23.56;41.67;101363.84;5062593;28;19917;-57
2023/06/14 02:51:54;;;;;;;;;;;;;;;23.54;41.77;101357.84;5062796;28;19964;-59
2023/06/14 02:54:19;;;;;;;;;;;;;;;23.49;41.81;101364.09;5042536;28;19913;-57
2023/06/14 02:56:44;;;;;;;;;;;;;;;23.51;41.97;101363.81;5043584;28;19935;-53
2023/06/14 02:59:10;;;;;;;;;;;;;;;23.46;42.04;101367.38;5040974;28;19928;-58
2023/06/14 03:01:40;;;;;;;;;;;;;;;23.43;41.57;101364.34;5039973;28;19924;-57
2023/06/14 03:04:08;;;;;;;;;;;;;;;23.38;41.63;101370.59;5037503;28;19917;-55
2023/06/14 03:06:37;;;;;;;;;;;;;;;23.32;41.88;101364.34;5039929;28;19919;-54
2023/06/14 03:09:09;;;;;;;;;;;;;;;23.27;41.72;101367.03;5040545;28;20006;-55
2023/06/14 03:11:37;;;;;;;;;;;;;;;23.30;41.89;101369.25;5037408;28;19924;-56
2023/06/14 03:14:04;;;;;;;;;;;;;;;23.23;42.18;101379.53;5040524;28;19921;-57
2023/06/14 03:16:31;;;;;;;;;;;;;;;23.17;42.20;101375.16;5038275;28;19940;-54
2023/06/14 03:18:59;;;;;;;;;;;;;;;23.06;42.58;101374.31;5041371;28;19920;-55
2023/06/14 03:21:29;;;;;;;;;;;;;;;23.12;42.08;101386.06;5038911;28;19912;-55
2023/06/14 03:23:57;;;;;;;;;;;;;;;23.11;42.28;101382.50;5036425;28;19960;-53
2023/06/14 03:26:24;;;;;;;;;;;;;;;23.12;42.52;101377.88;5033838;28;19925;-54
2023/06/14 03:28:53;;;;;;;;;;;;;;;23.12;42.30;101375.97;5036101;28;19924;-55
2023/06/14 03:31:20;;;;;;;;;;;;;;;23.09;42.16;101378.41;5042491;28;19979;-55
2023/06/14 03:33:46;;;;;;;;;;;;;;;23.13;42.40;101379.53;5039732;28;19947;-57
2023/06/14 03:36:12;;;;;;;;;;;;;;;23.11;42.46;101385.22;5039926;28;19913;-56
2023/06/14 03:38:38;;;;;;;;;;;;;;;23.00;42.54;101380.84;5040276;28;19959;-54
2023/06/14 03:41:04;;;;;;;;;;;;;;;23.04;42.70;101393.66;5038202;28;19912;-53
2023/06/14 03:43:31;;;;;;;;;;;;;;;22.97;43.01;101395.81;5038423;28;19920;-56
2023/06/14 03:45:57;;;;;;;;;;;;;;;23.06;42.89;101396.94;5036204;28;20391;-58
2023/06/14 03:48:24;;;;;;;;;;;;;;;23.13;42.82;101395.88;5036974;28;19917;-52
2023/06/14 03:50:50;;;;;;;;;;;;;;;23.16;43.21;101395.34;5038396;28;19948;-53
2023/06/14 03:53:15;;;;;;;;;;;;;;;23.19;42.97;101405.72;5038830;28;19921;-53
2023/06/14 03:55:44;;;;;;;;;;;;;;;23.20;42.65;101401.91;5036438;28;20362;-56
2023/06/14 03:58:10;;;;;;;;;;;;;;;23.19;42.73;101405.72;5038136;28;19913;-53
2023/06/14 04:00:37;;;;;;;;;;;;;;;23.20;43.08;101401.91;5036855;28;19912;-56
2023/06/14 04:03:05;;;;;;;;;;;;;;;23.19;42.90;101405.72;5037011;28;19917;-52
2023/06/14 04:05:31;;;;;;;;;;;;;;;23.20;43.14;101404.63;5021884;28;19920;-55
2023/06/14 04:07:57;;;;;;;;;;;;;;;23.21;42.90;101409.00;5031402;28;19948;-56
2023/06/14 04:10:22;;;;;;;;;;;;;;;23.23;43.07;101409.56;5039098;28;19923;-55
2023/06/14 04:12:48;;;;;;;;;;;;;;;23.15;42.98;101412.81;5036877;28;19931;-56
2023/06/14 04:15:13;;;;;;;;;;;;;;;22.99;43.49;101412.72;5038826;28;19924;-55
2023/06/14 04:17:39;;;;;;;;;;;;;;;23.04;43.35;101415.47;5057036;28;19971;-56
2023/06/14 04:20:07;;;;;;;;;;;;;;;23.20;43.32;101418.28;5043919;28;19924;-58
2023/06/14 04:22:33;;;;;;;;;;;;;;;23.19;43.21;101422.09;5043408;28;19923;-56
2023/06/14 04:24:59;;;;;;;;;;;;;;;23.19;43.26;101422.09;5039386;28;19913;-56
2023/06/14 04:27:26;;;;;;;;;;;;;;;23.22;43.57;101426.22;5039857;28;19917;-57
2023/06/14 04:29:59;;;;;;;;;;;;;;;23.20;43.20;101429.19;5039050;28;19913;-56
2023/06/14 04:32:33;;;;;;;;;;;;;;;23.22;43.44;101429.75;5040923;28;19940;-59
2023/06/14 04:35:01;;;;;;;;;;;;;;;23.22;43.20;101437.13;5055706;28;19913;-58
2023/06/14 04:37:30;;;;;;;;;;;;;;;23.23;43.75;101422.38;5038546;28;19936;-57
2023/06/14 04:39:56;;;;;;;;;;;;;;;23.26;43.30;101417.22;5038295;28;19912;-55
2023/06/14 04:42:24;;;;;;;;;;;;;;;23.12;43.55;101422.34;5039731;28;19965;-58
2023/06/14 04:44:55;;;;;;;;;;;;;;;23.25;43.99;101425.66;5034670;28;20001;-54
2023/06/14 04:47:21;;;;;;;;;;;;;;;23.24;44.03;101432.22;5061110;28;19912;-56
2023/06/14 04:49:46;;;;;;;;;;;;;;;23.23;43.94;101431.38;5040866;28;19976;-53
2023/06/14 04:52:12;;;;;;;;;;;;;;;23.31;44.41;101427.34;5060819;28;19984;-57
2023/06/14 04:54:43;;;;;;;;;;;;;;;23.33;43.93;101438.81;5042571;28;19924;-57
2023/06/14 04:57:13;;;;;;;;;;;;;;;23.42;44.46;101433.66;5046343;28;19936;-57
2023/06/14 04:59:40;;;;;;;;;;;;;;;23.42;44.21;101436.41;5041671;28;19916;-55
2023/06/14 05:02:07;;;;;;;;;;;;;;;23.31;44.59;101444.56;5042652;28;19912;-57
2023/06/14 05:04:33;;;;;;;;;;;;;;;23.36;45.06;101438.28;5043717;28;19919;-54
2023/06/14 05:07:01;;;;;;;;;;;;;;;23.58;44.58;101440.81;5043247;28;19920;-55
2023/06/14 05:09:26;;;;;;;;;;;;;;;23.47;44.46;101439.97;5042775;28;19988;-58
2023/06/14 05:11:51;;;;;;;;;;;;;;;23.46;45.16;101437.50;5037409;28;19918;-57
2023/06/14 05:14:18;;;;;;;;;;;;;;;23.61;44.77;101443.00;5029839;28;19914;-56
2023/06/14 05:16:44;;;;;;;;;;;;;;;23.71;44.54;101453.13;5032556;28;19964;-57
2023/06/14 05:19:10;;;;;;;;;;;;;;;23.59;44.76;101450.66;5026812;28;19909;-56
2023/06/14 05:21:37;;;;;;;;;;;;;;;23.45;45.14;101452.22;5030402;28;19913;-57
2023/06/14 05:24:03;;;;;;;;;;;;;;;23.68;45.23;101450.09;5026593;28;19925;-57
2023/06/14 05:26:28;;;;;;;;;;;;;;;23.65;45.17;101458.84;5032898;28;19905;-57
2023/06/14 05:28:57;;;;;;;;;;;;;;;23.78;44.87;101456.41;5023672;28;19930;-57
2023/06/14 05:31:24;;;;;;;;;;;;;;;23.80;44.78;101458.06;5026712;28;19913;-57
2023/06/14 05:33:49;;;;;;;;;;;;;;;23.61;44.62;101453.09;5026136;28;19925;-56
2023/06/14 05:36:15;;;;;;;;;;;;;;;23.61;45.12;101459.38;5025053;28;19913;-56
2023/06/14 05:38:41;;;;;;;;;;;;;;;23.74;45.04;101452.59;5023003;28;19937;-55
2023/06/14 05:41:06;;;;;;;;;;;;;;;23.96;44.52;101461.63;5025900;28;19960;-58
2023/06/14 05:43:31;;;;;;;;;;;;;;;23.97;44.42;101468.72;5021044;28;19921;-57
2023/06/14 05:45:57;;;;;;;;;;;;;;;23.95;44.64;101471.75;5023420;28;19914;-55
2023/06/14 05:48:23;;;;;;;;;;;;;;;23.95;44.58;101470.91;5020073;28;19917;-57
2023/06/14 05:50:48;;;;;;;;;;;;;;;24.18;44.54;101472.34;5020382;28;19913;-54
2023/06/14 05:53:14;;;;;;;;;;;;;;;24.14;44.91;101480.25;5022600;28;19928;-56
2023/06/14 05:55:40;;;;;;;;;;;;;;;24.18;44.44;101481.34;5021674;28;19917;-56
2023/06/14 05:58:05;;;;;;;;;;;;;;;24.06;44.86;101487.06;5029928;28;19914;-56
2023/06/14 06:00:31;;;;;;;;;;;;;;;24.12;44.74;101487.09;5028302;28;19913;-58
2023/06/14 06:02:57;;;;;;;;;;;;;;;24.11;44.33;101491.72;5023003;28;19977;-54
2023/06/14 06:05:23;;;;;;;;;;;;;;;24.23;44.77;101485.19;5023702;28;19921;-56
2023/06/14 06:07:49;;;;;;;;;;;;;;;24.20;44.22;101490.09;5021742;28;19953;-57
2023/06/14 06:10:14;;;;;;;;;;;;;;;24.30;44.26;101483.00;5024629;28;19917;-54
2023/06/14 06:12:41;;;;;;;;;;;;;;;24.48;44.21;101490.66;5056272;28;19959;-58
2023/06/14 06:15:07;;;;;;;;;;;;;;;24.47;44.41;101490.94;5056587;28;19925;-57
2023/06/14 06:17:32;;;;;;;;;;;;;;;24.63;44.52;101502.66;5053948;28;19913;-54
2023/06/14 06:19:58;;;;;;;;;;;;;;;24.50;44.45;101501.31;5059931;28;19955;-57
2023/06/14 06:22:24;;;;;;;;;;;;;;;24.71;45.63;101499.41;5053230;28;19917;-57
2023/06/14 06:24:49;;;;;;;;;;;;;;;24.66;44.56;101495.84;5059115;28;19917;-56
2023/06/14 06:27:15;;;;;;;;;;;;;;;24.56;44.59;101497.47;5056036;28;19913;-55
2023/06/14 06:29:42;;;;;;;;;;;;;;;24.61;44.51;101500.22;5060683;28;19913;-57
2023/06/14 06:32:07;;;;;;;;;;;;;;;24.66;45.02;101502.13;5055183;28;19923;-57
2023/06/14 06:34:33;;;;;;;;;;;;;;;24.75;43.90;101505.16;5045078;28;19913;-55
2023/06/14 06:36:59;;;;;;;;;;;;;;;24.74;44.22;101507.03;5059355;28;19912;-53
2023/06/14 06:39:25;;;;;;;;;;;;;;;24.64;44.29;101509.78;5060735;28;19928;-55
2023/06/14 06:41:51;;;;;;;;;;;;;;;24.79;44.25;101510.91;5053691;28;19917;-53
2023/06/14 06:44:26;;;;;;;;;;;;;;;25.04;44.04;101515.50;5041375;28;20001;-56
2023/06/14 06:46:54;;;;;;;;;;;;;;;25.12;43.24;101516.84;5041410;28;19963;-57
2023/06/14 06:49:20;;;;;;;;;;;;;;;24.98;43.84;101524.81;5058150;28;19917;-53
2023/06/14 06:51:58;;;;;;;;;;;;;;;25.30;43.94;101532.66;5057191;28;19932;-56
2023/06/14 06:54:24;;;;;;;;;;;;;;;25.28;43.51;101532.13;5053659;28;19913;-51
2023/06/14 06:56:50;;;;;;;;;;;;;;;25.56;43.35;101520.84;5062073;28;19939;-54
2023/06/14 06:59:16;;;;;;;;;;;;;;;25.72;43.21;101529.78;5058343;28;19912;-56
2023/06/14 07:01:42;;;;;;;;;;;;;;;25.49;43.18;101526.59;5056090;28;19917;-57
2023/06/14 07:04:07;;;;;;;;;;;;;;;25.70;42.85;101532.78;5055876;28;19913;-59
2023/06/14 07:06:33;;;;;;;;;;;;;;;25.65;43.36;101535.56;5050574;28;19944;-59
2023/06/14 07:09:01;;;;;;;;;;;;;;;25.63;42.75;101535.88;5056825;28;19928;-59
2023/06/14 07:11:26;;;;;;;;;;;;;;;26.01;43.12;101540.88;5055045;28;19917;-58
2023/06/14 07:13:52;;;;;;;;;;;;;;;26.03;42.98;101544.13;5058904;28;19947;-58
2023/06/14 07:16:18;;;;;;;;;;;;;;;25.95;42.29;101538.44;5057053;28;19909;-58
2023/06/14 07:18:44;;;;;;;;;;;;;;;25.86;42.41;101547.25;5054836;28;19943;-58
2023/06/14 07:21:09;;;;;;;;;;;;;;;26.10;42.59;101546.56;5055399;28;19936;-59
2023/06/14 07:23:35;;;;;;;;;;;;;;;26.05;42.91;101541.09;5057698;28;19935;-59
2023/06/14 07:26:00;;;;;;;;;;;;;;;26.02;41.90;101544.41;5059477;28;19913;-58
2023/06/14 07:28:26;;;;;;;;;;;;;;;26.04;41.91;101550.41;5057649;28;19924;-58
2023/06/14 07:30:51;;;;;;;;;;;;;;;26.24;41.72;101555.00;5061157;28;19913;-57
2023/06/14 07:33:16;;;;;;;;;;;;;;;26.29;42.33;101551.38;5063485;28;19920;-59
2023/06/14 07:35:42;;;;;;;;;;;;;;;26.12;41.21;101558.06;5056318;28;19913;-56
2023/06/14 07:38:07;;;;;;;;;;;;;;;26.31;41.32;101560.16;5057721;28;19988;-57
2023/06/14 07:40:33;;;;;;;;;;;;;;;26.40;41.47;101563.94;5054540;28;19968;-59
2023/06/14 07:42:58;;;;;;;;;;;;;;;26.32;40.80;101567.28;5055638;28;19992;-58
2023/06/14 07:45:23;;;;;;;;;;;;;;;26.60;40.52;101564.88;5057015;28;19912;-58
2023/06/14 07:47:49;;;;;;;;;;;;;;;26.48;40.26;101568.78;5062281;28;19917;-56
2023/06/14 07:50:15;;;;;;;;;;;;;;;26.87;39.84;101569.06;5061845;28;19977;-59
2023/06/14 07:52:40;;;;;;;;;;;;;;;26.94;40.03;101568.72;5058841;28;19958;-58
2023/06/14 07:55:06;;;;;;;;;;;;;;;27.02;40.46;101582.63;5057414;28;19912;-57
2023/06/14 07:57:31;;;;;;;;;;;;;;;27.04;40.03;101585.06;5057790;28;19909;-57
2023/06/14 07:59:56;;;;;;;;;;;;;;;27.09;40.33;101581.47;5035676;28;19935;-55
2023/06/14 08:02:22;;;;;;;;;;;;;;;27.01;39.84;101589.25;5059238;28;19980;-55
2023/06/14 08:04:48;;;;;;;;;;;;;;;27.18;39.59;101587.94;5055236;28;19935;-59
2023/06/14 08:07:14;;;;;;;;;;;;;;;27.23;39.38;101581.59;5056279;28;19909;-57
2023/06/14 08:09:40;;;;;;;;;;;;;;;27.31;38.96;101592.75;5058520;28;19915;-58
2023/06/14 08:12:07;;;;;;;;;;;;;;;27.32;39.01;101588.91;5053891;28;19989;-57
2023/06/14 08:14:33;;;;;;;;;;;;;;;27.27;38.55;101591.72;5055217;28;19913;-56
2023/06/14 08:16:58;;;;;;;;;;;;;;;27.24;39.26;101594.22;5054909;28;19940;-55
2023/06/14 08:19:23;;;;;;;;;;;;;;;27.23;39.07;101590.66;5057045;28;19963;-56
2023/06/14 08:21:49;;;;;;;;;;;;;;;27.39;37.93;101585.00;5058670;28;19920;-59
2023/06/14 08:24:15;;;;;;;;;;;;;;;27.31;37.91;101581.78;5058089;28;19944;-58
2023/06/14 08:26:40;;;;;;;;;;;;;;;27.48;37.94;101586.00;5058884;28;19908;-57
2023/06/14 08:29:06;;;;;;;;;;;;;;;27.65;37.64;101595.69;5060294;28;19924;-55
2023/06/14 08:31:32;;;;;;;;;;;;;;;27.58;36.30;101591.38;5057463;28;19913;-60
2023/06/14 08:33:58;;;;;;;;;;;;;;;27.78;36.59;101595.00;5059301;28;19919;-58
2023/06/14 08:36:23;;;;;;;;;;;;;;;27.82;36.73;101596.03;5064342;28;19916;-56
2023/06/14 08:38:49;;;;;;;;;;;;;;;27.60;35.55;101600.16;5060173;28;19936;-58
2023/06/14 08:41:20;;;;;;;;;;;;;;;27.58;35.93;101594.13;5059841;28;19920;-58
2023/06/14 08:43:45;;;;;;;;;;;;;;;27.93;35.89;101593.16;5059370;28;19920;-58
2023/06/14 08:46:12;;;;;;;;;;;;;;;27.86;36.05;101596.28;5064090;28;19913;-57
2023/06/14 08:48:39;;;;;;;;;;;;;;;28.09;35.85;101588.28;5062025;28;19944;-59
2023/06/14 08:51:04;;;;;;;;;;;;;;;28.08;35.28;101592.94;5058177;28;19920;-56
2023/06/14 08:53:33;;;;;;;;;;;;;;;28.14;34.93;101591.78;5059218;28;19921;-58
2023/06/14 08:56:02;;;;;;;;;;;;;;;27.97;34.53;101591.47;5057116;28;20445;-56
2023/06/14 08:58:31;;;;;;;;;;;;;;;28.05;34.46;101588.03;5061409;28;19917;-54
2023/06/14 09:00:57;;;;;;;;;;;;;;;28.08;34.35;101597.63;5062441;28;19916;-56
2023/06/14 09:03:28;;;;;;;;;;;;;;;28.48;33.52;101596.22;5060886;28;19977;-52
2023/06/14 09:05:54;;;;;;;;;;;;;;;28.51;33.58;101602.25;5059187;28;19913;-58
2023/06/14 09:08:22;;;;;;;;;;;;;;;28.50;32.79;101601.44;5058590;28;19944;-58
2023/06/14 09:10:48;;;;;;;;;;;;;;;28.44;33.44;101605.38;5059788;28;19917;-60
2023/06/14 09:13:13;;;;;;;;;;;;;;;28.74;32.85;101604.06;5058778;28;20019;-55
2023/06/14 09:15:39;;;;;;;;;;;;;;;28.73;33.92;101610.69;5061627;28;19927;-55
2023/06/14 09:18:05;;;;;;;;;;;;;;;28.85;33.29;101599.22;5062430;28;19913;-56
2023/06/14 09:20:32;;;;;;;;;;;;;;;29.13;33.77;101604.78;5057238;28;19913;-59
2023/06/14 09:22:58;;;;;;;;;;;;;;;29.09;32.44;101613.97;5060390;28;19992;-57
2023/06/14 09:25:24;;;;;;;;;;;;;;;29.18;32.95;101614.88;5056496;28;19913;-54
2023/06/14 09:27:51;;;;;;;;;;;;;;;29.16;32.43;101615.19;5057028;28;19924;-54
2023/06/14 09:30:19;;;;;;;;;;;;;;;29.45;32.11;101607.78;5039654;28;19912;-56
2023/06/14 09:32:45;;;;;;;;;;;;;;;29.61;32.39;101611.88;5057141;28;19913;-56
2023/06/14 09:35:11;;;;;;;;;;;;;;;29.83;31.25;101615.84;5057650;28;19909;-58
2023/06/14 09:37:40;;;;;;;;;;;;;;;29.84;30.89;101613.88;5060310;28;19920;-55
2023/06/14 09:40:07;;;;;;;;;;;;;;;30.22;30.62;101610.88;5058767;28;19936;-57
2023/06/14 09:42:35;;;;;;;;;;;;;;;30.59;30.80;101619.09;5059753;28;19968;-56
2023/06/14 09:45:01;;;;;;;;;;;;;;;30.89;30.08;101619.47;5059543;28;19959;-59
2023/06/14 09:47:27;;;;;;;;;;;;;;;31.04;29.79;101616.34;5041128;28;19942;-53
2023/06/14 09:49:55;;;;;;;;;;;;;;;31.60;28.41;101613.19;5061294;28;19928;-59
2023/06/14 09:52:21;;;;;;;;;;;;;;;32.21;28.13;101608.06;5056684;28;19916;-58
2023/06/14 09:54:48;;;;;;;;;;;;;;;32.74;27.66;101619.94;5059591;28;19920;-58
2023/06/14 09:57:14;;;;;;;;;;;;;;;33.04;27.04;101623.63;5057953;28;19921;-58
2023/06/14 09:59:42;;;;;;;;;;;;;;;33.58;26.25;101616.72;5063162;28;19984;-59
2023/06/14 10:02:10;;;;;;;;;;;;;;;33.97;24.79;101624.19;5058071;28;20983;-58
2023/06/14 10:04:36;;;;;;;;;;;;;;;34.49;25.21;101622.97;5060532;28;19920;-59
2023/06/14 10:07:03;;;;;;;;;;;;;;;34.77;25.95;101629.84;5055976;28;19912;-60
2023/06/14 10:09:29;;;;;;;;;;;;;;;35.05;24.98;101623.69;5060897;28;19951;-59
2023/06/14 10:11:55;;;;;;;;;;;;;;;35.93;24.05;101620.53;5058459;28;19917;-60
2023/06/14 10:14:21;;;;;;;;;;;;;;;36.61;23.39;101620.88;5061178;28;19920;-61
2023/06/14 10:17:08;;;;;;;;;;;;;;;36.72;22.88;101619.22;5062907;28;19925;-57
2023/06/14 10:19:37;;;;;;;;;;;;;;;37.01;23.70;101621.94;5056269;28;19944;-59
2023/06/14 10:22:18;;;;;;;;;;;;;;;37.30;23.29;101629.03;5060358;28;20002;-61
2023/06/14 10:24:44;;;;;;;;;;;;;;;37.86;21.84;101631.91;5057482;28;19978;-59
2023/06/14 10:27:12;;;;;;;;;;;;;;;38.10;22.02;101630.88;5059046;28;19916;-59
2023/06/14 10:29:53;;;;;;;;;;;;;;;37.79;21.81;101632.56;5059360;28;19917;-59
2023/06/14 10:32:19;;;;;;;;;;;;;;;38.19;21.07;101635.41;5057972;28;19917;-59
2023/06/14 10:34:44;;;;;;;;;;;;;;;38.07;21.63;101630.78;5057917;28;19917;-60
2023/06/14 10:37:13;;;;;;;;;;;;;;;38.40;21.44;101633.03;5057473;28;19916;-60
2023/06/14 10:39:41;;;;;;;;;;;;;;;39.32;20.18;101629.88;5054916;28;19973;-59
2023/06/14 10:42:06;;;;;;;;;;;;;;;39.36;20.95;101627.94;5058251;28;19924;-58
2023/06/14 10:44:39;;;;;;;;;;;;;;;39.72;20.49;101628.47;5058528;28;19913;-59
2023/06/14 10:47:25;;;;;;;;;;;;;;;39.30;20.99;101633.03;5056824;28;19919;-60
2023/06/14 10:49:51;;;;;;;;;;;;;;;39.52;20.67;101633.38;5062089;28;19916;-60
2023/06/14 10:52:20;;;;;;;;;;;;;;;39.48;20.66;101633.34;5061247;28;19948;-59
2023/06/14 10:54:56;;;;;;;;;;;;;;;40.14;20.58;101621.84;5056322;28;19913;-60
2023/06/14 10:57:21;;;;;;;;;;;;;;;39.54;21.88;101631.00;5056972;28;19923;-60
2023/06/14 10:59:47;;;;;;;;;;;;;;;39.91;21.23;101626.72;5059847;28;19984;-58
2023/06/14 11:02:21;;;;;;;;;;;;;;;39.93;20.86;101630.78;5060946;28;19951;-61
2023/06/14 11:04:48;;;;;;;;;;;;;;;40.71;20.27;101622.81;5039034;28;19991;-59
2023/06/14 11:07:32;;;;;;;;;;;;;;;40.74;20.76;101624.91;5055860;28;19912;-59
2023/06/14 11:10:05;;;;;;;;;;;;;;;41.50;19.95;101622.66;5057828;28;19913;-60
2023/06/14 11:12:39;;;;;;;;;;;;;;;41.87;19.64;101628.50;5155703;27;19924;-60
2023/06/14 11:15:05;;;;;;;;;;;;;;;42.03;19.88;101622.56;5156153;27;19947;-61
2023/06/14 11:17:32;;;;;;;;;;;;;;;41.77;20.03;101624.44;5158644;27;19916;-60
2023/06/14 11:20:10;;;;;;;;;;;;;;;42.08;19.38;101623.00;5161073;27;19916;-60
2023/06/14 11:22:42;;;;;;;;;;;;;;;42.42;18.58;101622.66;5160819;27;19923;-60
2023/06/14 11:25:11;;;;;;;;;;;;;;;42.81;19.19;101623.94;5157168;27;19936;-60
2023/06/14 11:27:37;;;;;;;;;;;;;;;43.36;18.56;101638.00;5156740;27;19927;-60
2023/06/14 11:30:02;;;;;;;;;;;;;;;43.13;18.96;101637.22;5154749;27;19915;-60
2023/06/14 11:32:28;;;;;;;;;;;;;;;42.90;18.69;101631.97;5156519;27;19919;-59
2023/06/14 11:34:53;;;;;;;;;;;;;;;43.62;18.05;101630.31;5155627;27;19916;-61
2023/06/14 11:37:19;;;;;;;;;;;;;;;44.63;17.59;101631.81;5155500;27;19916;-60
2023/06/14 11:39:45;;;;;;;;;;;;;;;43.67;18.44;101627.06;5155708;27;19922;-60
2023/06/14 11:42:14;;;;;;;;;;;;;;;44.03;17.90;101624.09;5156663;27;19916;-60
2023/06/14 11:44:40;;;;;;;;;;;;;;;44.17;17.83;101625.25;5158599;27;19919;-59
2023/06/14 11:47:05;;;;;;;;;;;;;;;43.48;18.37;101614.22;5161305;27;19923;-60
2023/06/14 11:49:34;;;;;;;;;;;;;;;43.45;18.09;101610.25;5157597;27;19941;-60
2023/06/14 11:52:00;;;;;;;;;;;;;;;43.49;18.14;101615.88;5155957;27;19920;-60
2023/06/14 11:54:26;;;;;;;;;;;;;;;43.59;18.44;101619.81;5160659;27;19930;-61
2023/06/14 11:56:51;;;;;;;;;;;;;;;43.78;17.39;101622.19;5154794;27;20009;-60
2023/06/14 11:59:17;;;;;;;;;;;;;;;44.35;17.39;101630.78;5151761;27;19916;-60
2023/06/14 12:01:43;;;;;;;;;;;;;;;44.60;18.15;101619.38;5151922;27;19916;-60
2023/06/14 12:04:09;;;;;;;;;;;;;;;44.58;17.42;101624.63;5151457;27;19917;-61
2023/06/14 12:06:35;;;;;;;;;;;;;;;44.84;16.67;101628.03;5156319;27;19940;-60
2023/06/14 12:09:04;;;;;;;;;;;;;;;44.95;17.14;101619.50;5150737;27;19916;-61
2023/06/14 12:11:34;;;;;;;;;;;;;;;44.87;17.45;101624.38;5153295;27;19991;-61
2023/06/14 12:14:00;;;;;;;;;;;;;;;44.10;16.93;101632.53;5152855;27;19975;-61
2023/06/14 12:16:31;;;;;;;;;;;;;;;44.01;17.02;101631.38;5153028;27;19987;-61
2023/06/14 12:19:00;;;;;;;;;;;;;;;44.69;16.79;101627.34;5151082;27;19971;-61
2023/06/14 12:21:27;;;;;;;;;;;;;;;44.64;16.71;101642.69;5156460;27;19916;-60
2023/06/14 12:23:53;;;;;;;;;;;;;;;45.48;15.93;101637.13;5139532;27;19927;-60
2023/06/14 12:26:19;;;;;;;;;;;;;;;45.75;15.82;101633.59;5140993;27;19975;-60
2023/06/14 12:28:45;;;;;;;;;;;;;;;44.54;16.00;101633.09;5140755;27;19957;-61
2023/06/14 12:31:12;;;;;;;;;;;;;;;44.84;16.11;101622.38;5140713;27;19916;-60
2023/06/14 12:33:38;;;;;;;;;;;;;;;44.85;16.35;101629.63;5142664;27;19916;-60